sensor_id;sensor_type;location;lat;lon;timestamp;temperature;humidity
33382;DHT22;21342;48.786;9.166;2022-10-15T00:01:32;15.10;99.90
33382;DHT22;21342;48.786;9.166;2022-10-15T00:04:01;15.10;99.90
33382;DHT22;21342;48.786;9.166;2022-10-15T00:06:28;15.10;99.90
33382;DHT22;21342;48.786;9.166;2022-10-15T00:08:55;15.10;99.90
33382;DHT22;21342;48.786;9.166;2022-10-15T00:11:24;15.20;99.90
33382;DHT22;21342;48.786;9.166;2022-10-15T00:13:52;15.20;99.90
33382;DHT22;21342;48.786;9.166;2022-10-15T00:16:22;15.20;99.90
33382;DHT22;21342;48.786;9.166;2022-10-15T00:18:51;15.20;99.90
33382;DHT22;21342;48.786;9.166;2022-10-15T00:21:20;15.20;99.90
33382;DHT22;21342;48.786;9.166;2022-10-15T00:23:48;15.20;99.90
33382;DHT22;21342;48.786;9.166;2022-10-15T00:26:18;15.20;99.90
33382;DHT22;21342;48.786;9.166;2022-10-15T00:28:45;15.20;99.90
33382;DHT22;21342;48.786;9.166;2022-10-15T00:31:16;15.30;99.90
33382;DHT22;21342;48.786;9.166;2022-10-15T00:33:44;15.20;99.90
33382;DHT22;21342;48.786;9.166;2022-10-15T00:36:13;15.20;99.90
33382;DHT22;21342;48.786;9.166;2022-10-15T00:38:42;15.20;99.90
33382;DHT22;21342;48.786;9.166;2022-10-15T00:41:12;15.20;99.90
33382;DHT22;21342;48.786;9.166;2022-10-15T00:43:43;15.20;99.90
33382;DHT22;21342;48.786;9.166;2022-10-15T00:46:19;15.20;99.90
33382;DHT22;21342;48.786;9.166;2022-10-15T00:48:50;15.20;99.90
33382;DHT22;21342;48.786;9.166;2022-10-15T00:51:20;15.10;99.90
33382;DHT22;21342;48.786;9.166;2022-10-15T00:53:50;15.20;99.90
33382;DHT22;21342;48.786;9.166;2022-10-15T00:56:19;15.20;99.90
33382;DHT22;21342;48.786;9.166;2022-10-15T00:58:48;15.20;99.90
33382;DHT22;21342;48.786;9.166;2022-10-15T01:01:16;15.20;99.90
33382;DHT22;21342;48.786;9.166;2022-10-15T01:03:43;15.20;99.90
33382;DHT22;21342;48.786;9.166;2022-10-15T01:06:10;15.20;99.90
33382;DHT22;21342;48.786;9.166;2022-10-15T01:08:37;15.20;99.90
33382;DHT22;21342;48.786;9.166;2022-10-15T01:11:16;15.20;99.90
33382;DHT22;21342;48.786;9.166;2022-10-15T01:13:53;15.30;99.90
33382;DHT22;21342;48.786;9.166;2022-10-15T01:16:33;15.30;99.90
33382;DHT22;21342;48.786;9.166;2022-10-15T01:19:05;15.30;99.90
33382;DHT22;21342;48.786;9.166;2022-10-15T01:21:37;15.30;99.90
33382;DHT22;21342;48.786;9.166;2022-10-15T01:24:33;15.40;99.90
33382;DHT22;21342;48.786;9.166;2022-10-15T01:27:22;15.40;99.90
33382;DHT22;21342;48.786;9.166;2022-10-15T01:30:11;15.40;99.90
33382;DHT22;21342;48.786;9.166;2022-10-15T01:32:45;15.30;99.90
33382;DHT22;21342;48.786;9.166;2022-10-15T01:35:28;15.30;99.90
33382;DHT22;21342;48.786;9.166;2022-10-15T01:38:08;15.40;99.90
33382;DHT22;21342;48.786;9.166;2022-10-15T01:40:43;15.30;99.90
33382;DHT22;21342;48.786;9.166;2022-10-15T01:43:15;15.30;99.90
33382;DHT22;21342;48.786;9.166;2022-10-15T01:45:48;15.30;99.90
33382;DHT22;21342;48.786;9.166;2022-10-15T01:48:18;15.30;99.90
33382;DHT22;21342;48.786;9.166;2022-10-15T01:50:50;15.40;99.90
33382;DHT22;21342;48.786;9.166;2022-10-15T01:53:21;15.40;99.90
33382;DHT22;21342;48.786;9.166;2022-10-15T01:55:53;15.40;99.90
33382;DHT22;21342;48.786;9.166;2022-10-15T01:58:22;15.40;99.90
33382;DHT22;21342;48.786;9.166;2022-10-15T02:00:52;15.40;99.90
33382;DHT22;21342;48.786;9.166;2022-10-15T02:03:20;15.40;99.90
33382;DHT22;21342;48.786;9.166;2022-10-15T02:05:51;15.50;99.90
33382;DHT22;21342;48.786;9.166;2022-10-15T02:08:25;15.50;99.90
33382;DHT22;21342;48.786;9.166;2022-10-15T02:10:58;15.50;99.90
33382;DHT22;21342;48.786;9.166;2022-10-15T02:13:32;15.50;99.90
33382;DHT22;21342;48.786;9.166;2022-10-15T02:16:11;15.50;99.90
33382;DHT22;21342;48.786;9.166;2022-10-15T02:18:44;15.50;99.90
33382;DHT22;21342;48.786;9.166;2022-10-15T02:21:16;15.50;99.90
33382;DHT22;21342;48.786;9.166;2022-10-15T02:26:14;15.50;99.90
33382;DHT22;21342;48.786;9.166;2022-10-15T02:28:45;15.50;99.90
33382;DHT22;21342;48.786;9.166;2022-10-15T02:31:15;15.50;99.90
33382;DHT22;21342;48.786;9.166;2022-10-15T02:33:45;15.60;99.90
33382;DHT22;21342;48.786;9.166;2022-10-15T02:36:13;15.60;99.90
33382;DHT22;21342;48.786;9.166;2022-10-15T02:38:42;15.60;99.90
33382;DHT22;21342;48.786;9.166;2022-10-15T02:41:11;15.60;99.90
33382;DHT22;21342;48.786;9.166;2022-10-15T02:43:39;15.60;99.90
33382;DHT22;21342;48.786;9.166;2022-10-15T02:46:09;15.60;99.90
33382;DHT22;21342;48.786;9.166;2022-10-15T02:48:39;15.60;99.90
33382;DHT22;21342;48.786;9.166;2022-10-15T02:51:06;15.60;99.90
33382;DHT22;21342;48.786;9.166;2022-10-15T02:53:34;15.60;99.90
33382;DHT22;21342;48.786;9.166;2022-10-15T02:56:01;15.70;99.90
33382;DHT22;21342;48.786;9.166;2022-10-15T02:58:28;15.60;99.90
33382;DHT22;21342;48.786;9.166;2022-10-15T03:00:55;15.60;99.90
33382;DHT22;21342;48.786;9.166;2022-10-15T03:03:22;15.60;99.90
33382;DHT22;21342;48.786;9.166;2022-10-15T03:05:51;15.60;99.90
33382;DHT22;21342;48.786;9.166;2022-10-15T03:08:18;15.60;99.90
33382;DHT22;21342;48.786;9.166;2022-10-15T03:10:45;15.70;99.90
33382;DHT22;21342;48.786;9.166;2022-10-15T03:13:12;15.70;99.90
33382;DHT22;21342;48.786;9.166;2022-10-15T03:15:39;15.70;99.90
33382;DHT22;21342;48.786;9.166;2022-10-15T03:18:06;15.70;99.90
33382;DHT22;21342;48.786;9.166;2022-10-15T03:20:33;15.80;99.90
33382;DHT22;21342;48.786;9.166;2022-10-15T03:23:02;15.80;99.90
33382;DHT22;21342;48.786;9.166;2022-10-15T03:25:29;15.80;99.90
33382;DHT22;21342;48.786;9.166;2022-10-15T03:27:56;15.80;99.90
33382;DHT22;21342;48.786;9.166;2022-10-15T03:30:23;15.70;99.90
33382;DHT22;21342;48.786;9.166;2022-10-15T03:32:50;15.80;99.90
33382;DHT22;21342;48.786;9.166;2022-10-15T03:35:18;15.80;99.90
33382;DHT22;21342;48.786;9.166;2022-10-15T03:37:45;15.90;99.90
33382;DHT22;21342;48.786;9.166;2022-10-15T03:40:13;15.80;99.90
33382;DHT22;21342;48.786;9.166;2022-10-15T03:42:40;15.90;99.90
33382;DHT22;21342;48.786;9.166;2022-10-15T03:45:08;15.90;99.90
33382;DHT22;21342;48.786;9.166;2022-10-15T03:47:35;15.80;99.90
33382;DHT22;21342;48.786;9.166;2022-10-15T03:50:03;15.90;99.90
33382;DHT22;21342;48.786;9.166;2022-10-15T03:52:30;15.90;99.90
33382;DHT22;21342;48.786;9.166;2022-10-15T03:54:57;15.90;99.90
33382;DHT22;21342;48.786;9.166;2022-10-15T03:57:26;15.90;99.90
33382;DHT22;21342;48.786;9.166;2022-10-15T03:59:53;15.90;99.90
33382;DHT22;21342;48.786;9.166;2022-10-15T04:02:20;15.90;99.90
33382;DHT22;21342;48.786;9.166;2022-10-15T04:04:50;15.90;99.90
33382;DHT22;21342;48.786;9.166;2022-10-15T04:07:17;16.00;99.90
33382;DHT22;21342;48.786;9.166;2022-10-15T04:09:45;16.00;99.90
33382;DHT22;21342;48.786;9.166;2022-10-15T04:12:12;16.00;99.90
33382;DHT22;21342;48.786;9.166;2022-10-15T04:14:41;16.00;99.90
33382;DHT22;21342;48.786;9.166;2022-10-15T04:17:08;16.00;99.90
33382;DHT22;21342;48.786;9.166;2022-10-15T04:19:35;16.00;99.90
33382;DHT22;21342;48.786;9.166;2022-10-15T04:22:03;15.90;99.90
33382;DHT22;21342;48.786;9.166;2022-10-15T04:24:30;16.00;99.90
33382;DHT22;21342;48.786;9.166;2022-10-15T04:26:57;16.00;99.90
33382;DHT22;21342;48.786;9.166;2022-10-15T04:29:25;15.90;99.90
33382;DHT22;21342;48.786;9.166;2022-10-15T04:31:55;16.00;99.90
33382;DHT22;21342;48.786;9.166;2022-10-15T04:34:22;15.90;99.90
33382;DHT22;21342;48.786;9.166;2022-10-15T04:36:50;15.90;99.90
33382;DHT22;21342;48.786;9.166;2022-10-15T04:39:17;15.90;99.90
33382;DHT22;21342;48.786;9.166;2022-10-15T04:41:58;15.90;99.90
33382;DHT22;21342;48.786;9.166;2022-10-15T04:44:43;15.90;99.90
33382;DHT22;21342;48.786;9.166;2022-10-15T04:47:15;15.80;99.90
33382;DHT22;21342;48.786;9.166;2022-10-15T04:49:43;15.90;99.90
33382;DHT22;21342;48.786;9.166;2022-10-15T04:52:10;15.90;99.90
33382;DHT22;21342;48.786;9.166;2022-10-15T04:54:41;15.90;99.90
33382;DHT22;21342;48.786;9.166;2022-10-15T04:57:08;15.90;99.90
33382;DHT22;21342;48.786;9.166;2022-10-15T04:59:36;15.80;99.90
33382;DHT22;21342;48.786;9.166;2022-10-15T05:02:03;15.80;99.90
33382;DHT22;21342;48.786;9.166;2022-10-15T05:04:31;15.90;99.90
33382;DHT22;21342;48.786;9.166;2022-10-15T05:06:59;15.80;99.90
33382;DHT22;21342;48.786;9.166;2022-10-15T05:09:26;15.80;99.90
33382;DHT22;21342;48.786;9.166;2022-10-15T05:11:53;15.80;99.90
33382;DHT22;21342;48.786;9.166;2022-10-15T05:14:20;15.70;99.90
33382;DHT22;21342;48.786;9.166;2022-10-15T05:16:48;15.80;99.90
33382;DHT22;21342;48.786;9.166;2022-10-15T05:19:15;15.80;99.90
33382;DHT22;21342;48.786;9.166;2022-10-15T05:21:44;15.80;99.90
33382;DHT22;21342;48.786;9.166;2022-10-15T05:24:11;15.80;99.90
33382;DHT22;21342;48.786;9.166;2022-10-15T05:26:38;15.80;99.90
33382;DHT22;21342;48.786;9.166;2022-10-15T05:29:05;15.80;99.90
33382;DHT22;21342;48.786;9.166;2022-10-15T05:31:33;15.80;99.90
33382;DHT22;21342;48.786;9.166;2022-10-15T05:34:05;15.80;99.90
33382;DHT22;21342;48.786;9.166;2022-10-15T05:36:33;15.80;99.90
33382;DHT22;21342;48.786;9.166;2022-10-15T05:39:04;15.80;99.90
33382;DHT22;21342;48.786;9.166;2022-10-15T05:41:35;15.80;99.90
33382;DHT22;21342;48.786;9.166;2022-10-15T05:44:02;15.70;99.90
33382;DHT22;21342;48.786;9.166;2022-10-15T05:46:30;15.70;99.90
33382;DHT22;21342;48.786;9.166;2022-10-15T05:48:57;15.80;99.90
33382;DHT22;21342;48.786;9.166;2022-10-15T05:51:25;15.70;99.90
33382;DHT22;21342;48.786;9.166;2022-10-15T05:53:53;15.70;99.90
33382;DHT22;21342;48.786;9.166;2022-10-15T05:56:22;15.70;99.90
33382;DHT22;21342;48.786;9.166;2022-10-15T05:58:50;15.70;99.90
33382;DHT22;21342;48.786;9.166;2022-10-15T06:01:17;15.70;99.90
33382;DHT22;21342;48.786;9.166;2022-10-15T06:03:45;15.70;99.90
33382;DHT22;21342;48.786;9.166;2022-10-15T06:06:13;15.70;99.90
33382;DHT22;21342;48.786;9.166;2022-10-15T06:08:41;15.70;99.90
33382;DHT22;21342;48.786;9.166;2022-10-15T06:11:08;15.80;99.90
33382;DHT22;21342;48.786;9.166;2022-10-15T06:13:39;15.80;99.90
33382;DHT22;21342;48.786;9.166;2022-10-15T06:16:07;15.80;99.90
33382;DHT22;21342;48.786;9.166;2022-10-15T06:18:35;15.80;99.90
33382;DHT22;21342;48.786;9.166;2022-10-15T06:21:03;15.80;99.90
33382;DHT22;21342;48.786;9.166;2022-10-15T06:23:30;15.80;99.90
33382;DHT22;21342;48.786;9.166;2022-10-15T06:26:01;15.80;99.90
33382;DHT22;21342;48.786;9.166;2022-10-15T06:28:29;15.80;99.90
33382;DHT22;21342;48.786;9.166;2022-10-15T06:30:58;15.80;99.90
33382;DHT22;21342;48.786;9.166;2022-10-15T06:33:26;15.80;99.90
33382;DHT22;21342;48.786;9.166;2022-10-15T06:35:54;15.80;99.90
33382;DHT22;21342;48.786;9.166;2022-10-15T06:38:21;15.90;99.90
33382;DHT22;21342;48.786;9.166;2022-10-15T06:40:49;15.90;99.90
33382;DHT22;21342;48.786;9.166;2022-10-15T06:43:16;15.90;99.90
33382;DHT22;21342;48.786;9.166;2022-10-15T06:45:43;15.80;99.90
33382;DHT22;21342;48.786;9.166;2022-10-15T06:48:12;15.80;99.90
33382;DHT22;21342;48.786;9.166;2022-10-15T06:50:39;15.80;99.90
33382;DHT22;21342;48.786;9.166;2022-10-15T06:53:07;15.90;99.90
33382;DHT22;21342;48.786;9.166;2022-10-15T06:55:34;15.90;99.90
33382;DHT22;21342;48.786;9.166;2022-10-15T06:58:04;15.80;99.90
33382;DHT22;21342;48.786;9.166;2022-10-15T07:00:31;15.80;99.90
33382;DHT22;21342;48.786;9.166;2022-10-15T07:03:02;15.90;99.90
33382;DHT22;21342;48.786;9.166;2022-10-15T07:05:31;15.90;99.90
33382;DHT22;21342;48.786;9.166;2022-10-15T07:07:58;15.90;99.90
33382;DHT22;21342;48.786;9.166;2022-10-15T07:10:26;15.90;99.90
33382;DHT22;21342;48.786;9.166;2022-10-15T07:12:53;15.90;99.90
33382;DHT22;21342;48.786;9.166;2022-10-15T07:15:21;15.80;99.90
33382;DHT22;21342;48.786;9.166;2022-10-15T07:17:48;15.90;99.90
33382;DHT22;21342;48.786;9.166;2022-10-15T07:22:45;18.80;99.90
33382;DHT22;21342;48.786;9.166;2022-10-15T07:25:13;20.00;99.90
33382;DHT22;21342;48.786;9.166;2022-10-15T07:27:40;20.70;99.90
33382;DHT22;21342;48.786;9.166;2022-10-15T07:30:09;21.00;99.90
33382;DHT22;21342;48.786;9.166;2022-10-15T07:35:04;21.50;99.90
33382;DHT22;21342;48.786;9.166;2022-10-15T07:37:31;21.60;99.90
33382;DHT22;21342;48.786;9.166;2022-10-15T07:40:00;21.80;99.90
33382;DHT22;21342;48.786;9.166;2022-10-15T07:42:27;21.40;99.90
33382;DHT22;21342;48.786;9.166;2022-10-15T07:44:54;21.50;99.90
33382;DHT22;21342;48.786;9.166;2022-10-15T07:47:21;21.60;99.90
33382;DHT22;21342;48.786;9.166;2022-10-15T07:49:48;20.40;99.90
33382;DHT22;21342;48.786;9.166;2022-10-15T07:52:16;19.40;99.90
33382;DHT22;21342;48.786;9.166;2022-10-15T07:54:44;19.10;99.90
33382;DHT22;21342;48.786;9.166;2022-10-15T07:57:13;18.70;99.90
33382;DHT22;21342;48.786;9.166;2022-10-15T07:59:40;19.30;99.90
33382;DHT22;21342;48.786;9.166;2022-10-15T08:02:11;19.60;99.90
33382;DHT22;21342;48.786;9.166;2022-10-15T08:04:40;19.60;99.90
33382;DHT22;21342;48.786;9.166;2022-10-15T08:07:07;20.30;99.90
33382;DHT22;21342;48.786;9.166;2022-10-15T08:09:35;20.80;99.90
33382;DHT22;21342;48.786;9.166;2022-10-15T08:12:02;20.90;99.90
33382;DHT22;21342;48.786;9.166;2022-10-15T08:14:33;21.10;99.90
33382;DHT22;21342;48.786;9.166;2022-10-15T08:17:00;21.20;99.90
33382;DHT22;21342;48.786;9.166;2022-10-15T08:19:28;20.50;99.90
33382;DHT22;21342;48.786;9.166;2022-10-15T08:21:55;19.80;99.90
33382;DHT22;21342;48.786;9.166;2022-10-15T08:24:22;20.00;99.90
33382;DHT22;21342;48.786;9.166;2022-10-15T08:26:49;20.50;99.90
33382;DHT22;21342;48.786;9.166;2022-10-15T08:29:17;20.90;99.90
33382;DHT22;21342;48.786;9.166;2022-10-15T08:31:45;20.30;99.90
33382;DHT22;21342;48.786;9.166;2022-10-15T08:34:12;21.00;99.90
33382;DHT22;21342;48.786;9.166;2022-10-15T08:36:39;20.80;99.90
33382;DHT22;21342;48.786;9.166;2022-10-15T08:39:06;20.70;99.90
33382;DHT22;21342;48.786;9.166;2022-10-15T08:41:38;20.20;99.90
33382;DHT22;21342;48.786;9.166;2022-10-15T08:44:12;20.50;99.90
33382;DHT22;21342;48.786;9.166;2022-10-15T08:46:45;19.30;99.90
33382;DHT22;21342;48.786;9.166;2022-10-15T08:49:20;19.70;99.90
33382;DHT22;21342;48.786;9.166;2022-10-15T08:51:54;19.00;99.90
33382;DHT22;21342;48.786;9.166;2022-10-15T08:54:24;18.40;99.90
33382;DHT22;21342;48.786;9.166;2022-10-15T08:56:58;18.10;99.90
33382;DHT22;21342;48.786;9.166;2022-10-15T08:59:33;17.60;99.90
33382;DHT22;21342;48.786;9.166;2022-10-15T09:07:12;18.40;99.90
33382;DHT22;21342;48.786;9.166;2022-10-15T09:09:43;18.00;99.90
33382;DHT22;21342;48.786;9.166;2022-10-15T09:12:28;18.20;99.90
33382;DHT22;21342;48.786;9.166;2022-10-15T09:14:59;17.70;99.90
33382;DHT22;21342;48.786;9.166;2022-10-15T09:17:31;18.20;99.90
33382;DHT22;21342;48.786;9.166;2022-10-15T09:20:04;18.30;99.90
33382;DHT22;21342;48.786;9.166;2022-10-15T09:22:33;18.00;99.90
33382;DHT22;21342;48.786;9.166;2022-10-15T09:25:13;18.10;99.90
33382;DHT22;21342;48.786;9.166;2022-10-15T09:27:40;18.70;99.90
33382;DHT22;21342;48.786;9.166;2022-10-15T09:30:26;19.00;99.90
33382;DHT22;21342;48.786;9.166;2022-10-15T09:32:59;19.00;99.90
33382;DHT22;21342;48.786;9.166;2022-10-15T09:35:33;19.30;99.90
33382;DHT22;21342;48.786;9.166;2022-10-15T09:38:13;19.90;99.90
33382;DHT22;21342;48.786;9.166;2022-10-15T09:40:53;20.80;99.90
33382;DHT22;21342;48.786;9.166;2022-10-15T09:43:28;21.20;99.90
33382;DHT22;21342;48.786;9.166;2022-10-15T09:45:58;21.80;99.90
33382;DHT22;21342;48.786;9.166;2022-10-15T09:48:29;21.70;99.90
33382;DHT22;21342;48.786;9.166;2022-10-15T09:51:01;21.60;99.90
33382;DHT22;21342;48.786;9.166;2022-10-15T09:53:40;21.20;99.90
33382;DHT22;21342;48.786;9.166;2022-10-15T09:56:15;21.40;99.90
33382;DHT22;21342;48.786;9.166;2022-10-15T10:01:18;21.30;99.90
33382;DHT22;21342;48.786;9.166;2022-10-15T10:03:51;21.20;99.90
33382;DHT22;21342;48.786;9.166;2022-10-15T10:06:20;22.20;99.90
33382;DHT22;21342;48.786;9.166;2022-10-15T10:08:51;22.40;99.90
33382;DHT22;21342;48.786;9.166;2022-10-15T10:11:19;21.70;99.90
33382;DHT22;21342;48.786;9.166;2022-10-15T10:13:51;21.90;99.90
33382;DHT22;21342;48.786;9.166;2022-10-15T10:16:20;22.30;99.90
33382;DHT22;21342;48.786;9.166;2022-10-15T10:19:04;22.60;99.90
33382;DHT22;21342;48.786;9.166;2022-10-15T10:24:25;21.60;99.90
33382;DHT22;21342;48.786;9.166;2022-10-15T10:26:55;22.60;99.90
33382;DHT22;21342;48.786;9.166;2022-10-15T10:29:23;22.60;99.90
33382;DHT22;21342;48.786;9.166;2022-10-15T10:31:51;23.50;99.90
33382;DHT22;21342;48.786;9.166;2022-10-15T10:34:25;23.70;99.90
33382;DHT22;21342;48.786;9.166;2022-10-15T10:36:53;24.70;99.90
33382;DHT22;21342;48.786;9.166;2022-10-15T10:39:24;25.40;99.90
33382;DHT22;21342;48.786;9.166;2022-10-15T10:41:54;25.50;99.90
33382;DHT22;21342;48.786;9.166;2022-10-15T10:44:26;26.00;99.90
33382;DHT22;21342;48.786;9.166;2022-10-15T10:47:12;24.70;99.90
33382;DHT22;21342;48.786;9.166;2022-10-15T10:49:43;24.70;99.90
33382;DHT22;21342;48.786;9.166;2022-10-15T10:52:21;24.70;99.90
33382;DHT22;21342;48.786;9.166;2022-10-15T10:54:56;24.80;99.90
33382;DHT22;21342;48.786;9.166;2022-10-15T10:57:33;23.80;99.90
33382;DHT22;21342;48.786;9.166;2022-10-15T11:00:03;22.60;99.90
33382;DHT22;21342;48.786;9.166;2022-10-15T11:02:31;22.40;99.90
33382;DHT22;21342;48.786;9.166;2022-10-15T11:05:02;21.90;99.90
33382;DHT22;21342;48.786;9.166;2022-10-15T11:07:33;22.20;99.90
33382;DHT22;21342;48.786;9.166;2022-10-15T11:10:09;21.40;99.90
33382;DHT22;21342;48.786;9.166;2022-10-15T11:12:48;21.60;99.90
33382;DHT22;21342;48.786;9.166;2022-10-15T11:15:35;22.20;99.90
33382;DHT22;21342;48.786;9.166;2022-10-15T11:18:26;22.00;99.90
33382;DHT22;21342;48.786;9.166;2022-10-15T11:21:07;21.60;99.90
33382;DHT22;21342;48.786;9.166;2022-10-15T11:23:47;20.90;99.90
33382;DHT22;21342;48.786;9.166;2022-10-15T11:26:29;20.70;99.90
33382;DHT22;21342;48.786;9.166;2022-10-15T11:29:08;20.80;99.90
33382;DHT22;21342;48.786;9.166;2022-10-15T11:31:50;20.80;99.90
33382;DHT22;21342;48.786;9.166;2022-10-15T11:34:30;20.70;99.90
33382;DHT22;21342;48.786;9.166;2022-10-15T11:37:16;20.40;99.90
33382;DHT22;21342;48.786;9.166;2022-10-15T11:40:01;20.70;99.90
33382;DHT22;21342;48.786;9.166;2022-10-15T11:42:36;20.70;99.90
33382;DHT22;21342;48.786;9.166;2022-10-15T11:45:26;20.60;99.90
33382;DHT22;21342;48.786;9.166;2022-10-15T11:47:57;20.90;99.90
33382;DHT22;21342;48.786;9.166;2022-10-15T11:50:29;20.80;99.90
33382;DHT22;21342;48.786;9.166;2022-10-15T11:53:24;20.70;99.90
33382;DHT22;21342;48.786;9.166;2022-10-15T11:55:58;20.90;99.90
33382;DHT22;21342;48.786;9.166;2022-10-15T11:58:29;21.40;99.90
33382;DHT22;21342;48.786;9.166;2022-10-15T12:01:00;21.00;99.90
33382;DHT22;21342;48.786;9.166;2022-10-15T12:03:32;20.90;99.90
33382;DHT22;21342;48.786;9.166;2022-10-15T12:06:05;21.30;99.90
33382;DHT22;21342;48.786;9.166;2022-10-15T12:08:36;22.00;99.90
33382;DHT22;21342;48.786;9.166;2022-10-15T12:11:23;22.20;99.90
33382;DHT22;21342;48.786;9.166;2022-10-15T12:13:57;22.00;99.90
33382;DHT22;21342;48.786;9.166;2022-10-15T12:16:32;21.60;99.90
33382;DHT22;21342;48.786;9.166;2022-10-15T12:19:12;21.20;99.90
33382;DHT22;21342;48.786;9.166;2022-10-15T12:21:44;20.90;99.90
33382;DHT22;21342;48.786;9.166;2022-10-15T12:24:52;20.70;99.90
33382;DHT22;21342;48.786;9.166;2022-10-15T12:27:22;20.40;99.90
33382;DHT22;21342;48.786;9.166;2022-10-15T12:29:52;20.20;99.90
33382;DHT22;21342;48.786;9.166;2022-10-15T12:32:39;20.10;99.90
33382;DHT22;21342;48.786;9.166;2022-10-15T12:35:22;19.90;99.90
33382;DHT22;21342;48.786;9.166;2022-10-15T12:37:50;19.70;99.90
33382;DHT22;21342;48.786;9.166;2022-10-15T12:40:29;19.50;99.90
33382;DHT22;21342;48.786;9.166;2022-10-15T12:42:58;19.50;99.90
33382;DHT22;21342;48.786;9.166;2022-10-15T12:45:33;19.50;99.90
33382;DHT22;21342;48.786;9.166;2022-10-15T12:48:20;19.40;99.90
33382;DHT22;21342;48.786;9.166;2022-10-15T12:50:47;19.20;99.90
33382;DHT22;21342;48.786;9.166;2022-10-15T12:53:31;19.10;99.90
33382;DHT22;21342;48.786;9.166;2022-10-15T12:56:20;19.10;99.90
33382;DHT22;21342;48.786;9.166;2022-10-15T12:58:49;19.10;99.90
33382;DHT22;21342;48.786;9.166;2022-10-15T13:01:48;19.00;99.90
33382;DHT22;21342;48.786;9.166;2022-10-15T13:04:16;19.00;99.90
33382;DHT22;21342;48.786;9.166;2022-10-15T13:06:44;18.90;99.90
33382;DHT22;21342;48.786;9.166;2022-10-15T13:09:27;18.80;99.90
33382;DHT22;21342;48.786;9.166;2022-10-15T13:11:58;18.70;99.90
33382;DHT22;21342;48.786;9.166;2022-10-15T13:14:35;18.70;99.90
33382;DHT22;21342;48.786;9.166;2022-10-15T13:17:05;18.60;99.90
33382;DHT22;21342;48.786;9.166;2022-10-15T13:19:45;18.60;99.90
33382;DHT22;21342;48.786;9.166;2022-10-15T13:22:21;18.60;99.90
33382;DHT22;21342;48.786;9.166;2022-10-15T13:24:49;18.60;99.90
33382;DHT22;21342;48.786;9.166;2022-10-15T13:27:21;18.40;99.90
33382;DHT22;21342;48.786;9.166;2022-10-15T13:29:53;18.30;99.90
33382;DHT22;21342;48.786;9.166;2022-10-15T13:32:21;18.20;99.90
33382;DHT22;21342;48.786;9.166;2022-10-15T13:34:49;18.10;99.90
33382;DHT22;21342;48.786;9.166;2022-10-15T13:37:18;18.00;99.90
33382;DHT22;21342;48.786;9.166;2022-10-15T13:39:50;17.90;99.90
33382;DHT22;21342;48.786;9.166;2022-10-15T13:42:20;18.00;99.90
33382;DHT22;21342;48.786;9.166;2022-10-15T13:45:00;18.00;99.90
33382;DHT22;21342;48.786;9.166;2022-10-15T13:47:30;17.90;99.90
33382;DHT22;21342;48.786;9.166;2022-10-15T13:50:18;17.90;99.90
33382;DHT22;21342;48.786;9.166;2022-10-15T13:52:48;17.90;99.90
33382;DHT22;21342;48.786;9.166;2022-10-15T13:55:18;17.90;99.90
33382;DHT22;21342;48.786;9.166;2022-10-15T13:57:49;17.90;99.90
33382;DHT22;21342;48.786;9.166;2022-10-15T14:00:23;17.90;99.90
33382;DHT22;21342;48.786;9.166;2022-10-15T14:03:14;17.90;99.90
33382;DHT22;21342;48.786;9.166;2022-10-15T14:05:42;17.90;99.90
33382;DHT22;21342;48.786;9.166;2022-10-15T14:08:22;17.90;99.90
33382;DHT22;21342;48.786;9.166;2022-10-15T14:10:50;17.90;99.90
33382;DHT22;21342;48.786;9.166;2022-10-15T14:13:19;17.90;99.90
33382;DHT22;21342;48.786;9.166;2022-10-15T14:15:57;18.00;99.90
33382;DHT22;21342;48.786;9.166;2022-10-15T14:18:32;17.90;99.90
33382;DHT22;21342;48.786;9.166;2022-10-15T14:21:00;18.00;99.90
33382;DHT22;21342;48.786;9.166;2022-10-15T14:23:28;17.90;99.90
33382;DHT22;21342;48.786;9.166;2022-10-15T14:25:57;17.70;99.90
33382;DHT22;21342;48.786;9.166;2022-10-15T14:28:28;17.70;99.90
33382;DHT22;21342;48.786;9.166;2022-10-15T14:30:56;17.60;99.90
33382;DHT22;21342;48.786;9.166;2022-10-15T14:33:41;17.70;99.90
33382;DHT22;21342;48.786;9.166;2022-10-15T14:36:13;17.70;99.90
33382;DHT22;21342;48.786;9.166;2022-10-15T14:38:42;17.70;99.90
33382;DHT22;21342;48.786;9.166;2022-10-15T14:41:33;17.70;99.90
33382;DHT22;21342;48.786;9.166;2022-10-15T14:44:16;17.80;99.90
33382;DHT22;21342;48.786;9.166;2022-10-15T14:46:45;17.80;99.90
33382;DHT22;21342;48.786;9.166;2022-10-15T14:49:22;17.90;99.90
33382;DHT22;21342;48.786;9.166;2022-10-15T14:51:59;17.90;99.90
33382;DHT22;21342;48.786;9.166;2022-10-15T14:54:35;18.00;99.90
33382;DHT22;21342;48.786;9.166;2022-10-15T14:57:03;18.00;99.90
33382;DHT22;21342;48.786;9.166;2022-10-15T14:59:35;18.00;99.90
33382;DHT22;21342;48.786;9.166;2022-10-15T15:02:05;18.10;99.90
33382;DHT22;21342;48.786;9.166;2022-10-15T15:04:44;18.10;99.90
33382;DHT22;21342;48.786;9.166;2022-10-15T15:07:15;18.20;99.90
33382;DHT22;21342;48.786;9.166;2022-10-15T15:09:46;18.20;99.90
33382;DHT22;21342;48.786;9.166;2022-10-15T15:12:20;18.20;99.90
33382;DHT22;21342;48.786;9.166;2022-10-15T15:14:50;18.20;99.90
33382;DHT22;21342;48.786;9.166;2022-10-15T15:17:19;18.30;99.90
33382;DHT22;21342;48.786;9.166;2022-10-15T15:19:48;18.40;99.90
33382;DHT22;21342;48.786;9.166;2022-10-15T15:22:17;18.50;99.90
33382;DHT22;21342;48.786;9.166;2022-10-15T15:24:47;18.60;99.90
33382;DHT22;21342;48.786;9.166;2022-10-15T15:27:22;18.60;99.90
33382;DHT22;21342;48.786;9.166;2022-10-15T15:29:52;18.70;99.90
33382;DHT22;21342;48.786;9.166;2022-10-15T15:32:19;18.60;99.90
33382;DHT22;21342;48.786;9.166;2022-10-15T15:34:52;18.60;99.90
33382;DHT22;21342;48.786;9.166;2022-10-15T15:37:21;18.60;99.90
33382;DHT22;21342;48.786;9.166;2022-10-15T15:39:49;18.70;99.90
33382;DHT22;21342;48.786;9.166;2022-10-15T15:42:18;18.70;99.90
33382;DHT22;21342;48.786;9.166;2022-10-15T15:44:46;18.80;99.90
33382;DHT22;21342;48.786;9.166;2022-10-15T15:47:15;18.70;99.90
33382;DHT22;21342;48.786;9.166;2022-10-15T15:49:42;18.70;99.90
33382;DHT22;21342;48.786;9.166;2022-10-15T15:52:11;18.70;99.90
33382;DHT22;21342;48.786;9.166;2022-10-15T15:54:39;18.60;99.90
33382;DHT22;21342;48.786;9.166;2022-10-15T15:57:06;18.60;99.90
33382;DHT22;21342;48.786;9.166;2022-10-15T15:59:33;18.60;99.90
33382;DHT22;21342;48.786;9.166;2022-10-15T16:02:01;18.50;99.90
33382;DHT22;21342;48.786;9.166;2022-10-15T16:04:29;18.50;99.90
33382;DHT22;21342;48.786;9.166;2022-10-15T16:06:56;18.40;99.90
33382;DHT22;21342;48.786;9.166;2022-10-15T16:09:25;18.40;99.90
33382;DHT22;21342;48.786;9.166;2022-10-15T16:11:55;18.30;99.90
33382;DHT22;21342;48.786;9.166;2022-10-15T16:14:23;18.30;99.90